sensor_id;sensor_type;location;lat;lon;timestamp;P1;durP1;ratioP1;P2;durP2;ratioP2
23159;SDS011;11748;50.844;4.396;2023-12-04T00:01:21;10.60;;;6.72;;
23159;SDS011;11748;50.844;4.396;2023-12-04T00:03:47;11.32;;;6.78;;
23159;SDS011;11748;50.844;4.396;2023-12-04T00:06:13;12.30;;;7.00;;
23159;SDS011;11748;50.844;4.396;2023-12-04T00:08:39;10.80;;;6.57;;
23159;SDS011;11748;50.844;4.396;2023-12-04T00:11:05;11.35;;;6.40;;
23159;SDS011;11748;50.844;4.396;2023-12-04T00:13:31;10.48;;;6.68;;
23159;SDS011;11748;50.844;4.396;2023-12-04T00:15:58;10.63;;;6.78;;
23159;SDS011;11748;50.844;4.396;2023-12-04T00:18:24;10.43;;;6.50;;
23159;SDS011;11748;50.844;4.396;2023-12-04T00:20:50;11.25;;;6.70;;
23159;SDS011;11748;50.844;4.396;2023-12-04T00:23:17;11.90;;;6.75;;
23159;SDS011;11748;50.844;4.396;2023-12-04T00:25:43;11.10;;;6.78;;
23159;SDS011;11748;50.844;4.396;2023-12-04T00:28:09;9.65;;;6.45;;
23159;SDS011;11748;50.844;4.396;2023-12-04T00:30:37;9.52;;;5.97;;
23159;SDS011;11748;50.844;4.396;2023-12-04T00:35:32;9.25;;;6.40;;
23159;SDS011;11748;50.844;4.396;2023-12-04T00:37:58;10.65;;;6.00;;
23159;SDS011;11748;50.844;4.396;2023-12-04T00:40:25;10.63;;;6.70;;
23159;SDS011;11748;50.844;4.396;2023-12-04T00:42:51;9.50;;;6.25;;
23159;SDS011;11748;50.844;4.396;2023-12-04T00:45:16;10.23;;;6.28;;
23159;SDS011;11748;50.844;4.396;2023-12-04T00:47:42;9.00;;;5.78;;
23159;SDS011;11748;50.844;4.396;2023-12-04T00:50:10;10.35;;;6.25;;
23159;SDS011;11748;50.844;4.396;2023-12-04T00:52:36;9.95;;;5.78;;
23159;SDS011;11748;50.844;4.396;2023-12-04T00:55:02;8.88;;;6.40;;
23159;SDS011;11748;50.844;4.396;2023-12-04T00:57:28;9.13;;;5.90;;
23159;SDS011;11748;50.844;4.396;2023-12-04T00:59:54;10.13;;;5.90;;
23159;SDS011;11748;50.844;4.396;2023-12-04T01:02:19;8.60;;;6.10;;
23159;SDS011;11748;50.844;4.396;2023-12-04T01:04:48;9.50;;;5.65;;
23159;SDS011;11748;50.844;4.396;2023-12-04T01:07:14;9.40;;;5.80;;
23159;SDS011;11748;50.844;4.396;2023-12-04T01:09:41;8.75;;;5.22;;
23159;SDS011;11748;50.844;4.396;2023-12-04T01:12:06;10.10;;;5.57;;
23159;SDS011;11748;50.844;4.396;2023-12-04T01:14:32;8.50;;;5.65;;
23159;SDS011;11748;50.844;4.396;2023-12-04T01:16:58;8.90;;;5.68;;
23159;SDS011;11748;50.844;4.396;2023-12-04T01:19:24;8.68;;;5.47;;
23159;SDS011;11748;50.844;4.396;2023-12-04T01:21:50;8.50;;;5.38;;
23159;SDS011;11748;50.844;4.396;2023-12-04T01:24:19;7.68;;;5.13;;
23159;SDS011;11748;50.844;4.396;2023-12-04T01:26:45;8.48;;;5.65;;
23159;SDS011;11748;50.844;4.396;2023-12-04T01:31:42;7.47;;;5.13;;
23159;SDS011;11748;50.844;4.396;2023-12-04T01:34:13;10.32;;;5.65;;
23159;SDS011;11748;50.844;4.396;2023-12-04T01:36:42;9.52;;;5.60;;
23159;SDS011;11748;50.844;4.396;2023-12-04T01:39:08;7.43;;;5.03;;
23159;SDS011;11748;50.844;4.396;2023-12-04T01:41:33;7.80;;;5.28;;
23159;SDS011;11748;50.844;4.396;2023-12-04T01:43:59;9.32;;;5.20;;
23159;SDS011;11748;50.844;4.396;2023-12-04T01:46:25;8.60;;;5.47;;
23159;SDS011;11748;50.844;4.396;2023-12-04T01:48:51;7.60;;;5.32;;
23159;SDS011;11748;50.844;4.396;2023-12-04T01:51:18;7.53;;;5.07;;
23159;SDS011;11748;50.844;4.396;2023-12-04T01:53:45;8.73;;;5.30;;
23159;SDS011;11748;50.844;4.396;2023-12-04T01:56:13;7.47;;;5.03;;
23159;SDS011;11748;50.844;4.396;2023-12-04T01:58:39;8.25;;;5.15;;
23159;SDS011;11748;50.844;4.396;2023-12-04T02:01:06;7.75;;;5.18;;
23159;SDS011;11748;50.844;4.396;2023-12-04T02:03:33;9.85;;;5.65;;
23159;SDS011;11748;50.844;4.396;2023-12-04T02:05:58;8.15;;;5.10;;
23159;SDS011;11748;50.844;4.396;2023-12-04T02:08:26;8.23;;;5.45;;
23159;SDS011;11748;50.844;4.396;2023-12-04T02:10:52;8.27;;;5.03;;
23159;SDS011;11748;50.844;4.396;2023-12-04T02:13:17;9.20;;;5.00;;
23159;SDS011;11748;50.844;4.396;2023-12-04T02:15:43;8.20;;;5.50;;
23159;SDS011;11748;50.844;4.396;2023-12-04T02:18:11;7.85;;;4.90;;
23159;SDS011;11748;50.844;4.396;2023-12-04T02:20:37;7.07;;;4.47;;
23159;SDS011;11748;50.844;4.396;2023-12-04T02:23:03;8.15;;;5.18;;
23159;SDS011;11748;50.844;4.396;2023-12-04T02:25:29;7.00;;;4.90;;
23159;SDS011;11748;50.844;4.396;2023-12-04T02:27:56;6.80;;;4.47;;
23159;SDS011;11748;50.844;4.396;2023-12-04T02:30:26;7.75;;;4.70;;
23159;SDS011;11748;50.844;4.396;2023-12-04T02:32:55;7.25;;;4.90;;
23159;SDS011;11748;50.844;4.396;2023-12-04T02:35:24;7.25;;;5.10;;
23159;SDS011;11748;50.844;4.396;2023-12-04T02:37:54;6.53;;;4.60;;
23159;SDS011;11748;50.844;4.396;2023-12-04T02:40:24;8.30;;;4.88;;
23159;SDS011;11748;50.844;4.396;2023-12-04T02:42:51;7.32;;;4.72;;
23159;SDS011;11748;50.844;4.396;2023-12-04T02:45:17;6.82;;;4.53;;
23159;SDS011;11748;50.844;4.396;2023-12-04T02:47:42;7.88;;;4.80;;
23159;SDS011;11748;50.844;4.396;2023-12-04T02:50:08;6.97;;;4.53;;
23159;SDS011;11748;50.844;4.396;2023-12-04T02:52:34;7.68;;;4.72;;
23159;SDS011;11748;50.844;4.396;2023-12-04T02:55:00;7.70;;;5.03;;
23159;SDS011;11748;50.844;4.396;2023-12-04T02:57:25;6.53;;;4.40;;
23159;SDS011;11748;50.844;4.396;2023-12-04T02:59:51;8.60;;;5.40;;
23159;SDS011;11748;50.844;4.396;2023-12-04T03:02:17;9.18;;;5.38;;
23159;SDS011;11748;50.844;4.396;2023-12-04T03:04:45;7.43;;;4.70;;
23159;SDS011;11748;50.844;4.396;2023-12-04T03:07:11;5.88;;;4.30;;
23159;SDS011;11748;50.844;4.396;2023-12-04T03:09:37;8.45;;;5.15;;
23159;SDS011;11748;50.844;4.396;2023-12-04T03:12:02;7.35;;;4.85;;
23159;SDS011;11748;50.844;4.396;2023-12-04T03:14:28;6.72;;;4.28;;
23159;SDS011;11748;50.844;4.396;2023-12-04T03:16:54;7.40;;;4.85;;
23159;SDS011;11748;50.844;4.396;2023-12-04T03:19:20;6.75;;;4.18;;
23159;SDS011;11748;50.844;4.396;2023-12-04T03:21:49;6.70;;;4.78;;
23159;SDS011;11748;50.844;4.396;2023-12-04T03:24:15;6.80;;;4.70;;
23159;SDS011;11748;50.844;4.396;2023-12-04T03:26:40;7.57;;;4.55;;
23159;SDS011;11748;50.844;4.396;2023-12-04T03:29:06;7.00;;;4.88;;
23159;SDS011;11748;50.844;4.396;2023-12-04T03:31:36;6.43;;;4.63;;
23159;SDS011;11748;50.844;4.396;2023-12-04T03:34:10;7.28;;;4.97;;
23159;SDS011;11748;50.844;4.396;2023-12-04T03:36:36;7.28;;;4.93;;
23159;SDS011;11748;50.844;4.396;2023-12-04T03:39:07;7.38;;;5.20;;
23159;SDS011;11748;50.844;4.396;2023-12-04T03:41:34;11.32;;;5.25;;
23159;SDS011;11748;50.844;4.396;2023-12-04T03:43:59;7.45;;;4.95;;
23159;SDS011;11748;50.844;4.396;2023-12-04T03:46:25;7.70;;;5.03;;
23159;SDS011;11748;50.844;4.396;2023-12-04T03:48:51;7.63;;;5.18;;
23159;SDS011;11748;50.844;4.396;2023-12-04T03:51:17;8.38;;;5.00;;
23159;SDS011;11748;50.844;4.396;2023-12-04T03:53:43;7.00;;;4.75;;
23159;SDS011;11748;50.844;4.396;2023-12-04T03:56:10;7.35;;;4.85;;
23159;SDS011;11748;50.844;4.396;2023-12-04T03:58:37;7.50;;;5.00;;
23159;SDS011;11748;50.844;4.396;2023-12-04T04:01:04;9.23;;;5.15;;
23159;SDS011;11748;50.844;4.396;2023-12-04T04:03:29;7.15;;;4.72;;
23159;SDS011;11748;50.844;4.396;2023-12-04T04:05:55;7.28;;;4.75;;
23159;SDS011;11748;50.844;4.396;2023-12-04T04:08:21;8.57;;;5.30;;
23159;SDS011;11748;50.844;4.396;2023-12-04T04:10:47;8.02;;;5.32;;
23159;SDS011;11748;50.844;4.396;2023-12-04T04:13:12;8.48;;;5.25;;
23159;SDS011;11748;50.844;4.396;2023-12-04T04:15:39;8.00;;;5.25;;
23159;SDS011;11748;50.844;4.396;2023-12-04T04:18:04;6.82;;;4.72;;
23159;SDS011;11748;50.844;4.396;2023-12-04T04:20:33;7.53;;;5.05;;
23159;SDS011;11748;50.844;4.396;2023-12-04T04:25:28;6.93;;;4.60;;
23159;SDS011;11748;50.844;4.396;2023-12-04T04:27:55;8.10;;;4.50;;
23159;SDS011;11748;50.844;4.396;2023-12-04T04:32:50;6.65;;;4.85;;
23159;SDS011;11748;50.844;4.396;2023-12-04T04:35:17;7.90;;;4.95;;
23159;SDS011;11748;50.844;4.396;2023-12-04T04:37:43;6.68;;;4.60;;
23159;SDS011;11748;50.844;4.396;2023-12-04T04:40:09;7.22;;;4.93;;
23159;SDS011;11748;50.844;4.396;2023-12-04T04:42:36;5.80;;;4.30;;
23159;SDS011;11748;50.844;4.396;2023-12-04T04:45:02;5.93;;;4.20;;
23159;SDS011;11748;50.844;4.396;2023-12-04T04:47:35;6.30;;;4.45;;
23159;SDS011;11748;50.844;4.396;2023-12-04T04:50:04;6.60;;;4.80;;
23159;SDS011;11748;50.844;4.396;2023-12-04T04:52:37;6.68;;;4.45;;
23159;SDS011;11748;50.844;4.396;2023-12-04T04:55:04;6.43;;;4.25;;
23159;SDS011;11748;50.844;4.396;2023-12-04T04:57:34;7.28;;;4.50;;
23159;SDS011;11748;50.844;4.396;2023-12-04T05:00:00;4.97;;;3.97;;
23159;SDS011;11748;50.844;4.396;2023-12-04T05:02:26;6.80;;;4.47;;
23159;SDS011;11748;50.844;4.396;2023-12-04T05:04:52;6.43;;;4.53;;
23159;SDS011;11748;50.844;4.396;2023-12-04T05:07:17;7.85;;;4.05;;
23159;SDS011;11748;50.844;4.396;2023-12-04T05:09:43;6.43;;;4.20;;
23159;SDS011;11748;50.844;4.396;2023-12-04T05:12:09;5.80;;;4.03;;
23159;SDS011;11748;50.844;4.396;2023-12-04T05:14:35;5.95;;;4.35;;
23159;SDS011;11748;50.844;4.396;2023-12-04T05:17:01;5.60;;;4.18;;
23159;SDS011;11748;50.844;4.396;2023-12-04T05:19:27;4.97;;;4.13;;
23159;SDS011;11748;50.844;4.396;2023-12-04T05:21:52;5.45;;;3.67;;
23159;SDS011;11748;50.844;4.396;2023-12-04T05:24:18;4.93;;;3.85;;
23159;SDS011;11748;50.844;4.396;2023-12-04T05:26:44;5.80;;;3.72;;
23159;SDS011;11748;50.844;4.396;2023-12-04T05:29:11;7.03;;;4.03;;
23159;SDS011;11748;50.844;4.396;2023-12-04T05:31:43;4.95;;;3.80;;
23159;SDS011;11748;50.844;4.396;2023-12-04T05:34:09;4.85;;;3.60;;
23159;SDS011;11748;50.844;4.396;2023-12-04T05:42:16;5.32;;;3.45;;
23159;SDS011;11748;50.844;4.396;2023-12-04T05:44:44;4.25;;;3.22;;
23159;SDS011;11748;50.844;4.396;2023-12-04T05:47:09;4.18;;;3.30;;
23159;SDS011;11748;50.844;4.396;2023-12-04T05:49:35;5.05;;;3.65;;
23159;SDS011;11748;50.844;4.396;2023-12-04T05:52:01;5.50;;;3.40;;
23159;SDS011;11748;50.844;4.396;2023-12-04T05:54:28;6.82;;;4.00;;
23159;SDS011;11748;50.844;4.396;2023-12-04T05:56:58;4.72;;;3.20;;
23159;SDS011;11748;50.844;4.396;2023-12-04T05:59:25;5.13;;;3.60;;
23159;SDS011;11748;50.844;4.396;2023-12-04T06:01:50;4.70;;;3.55;;
23159;SDS011;11748;50.844;4.396;2023-12-04T06:04:16;6.22;;;4.20;;
23159;SDS011;11748;50.844;4.396;2023-12-04T06:06:42;4.88;;;3.58;;
23159;SDS011;11748;50.844;4.396;2023-12-04T06:09:08;6.40;;;3.85;;
23159;SDS011;11748;50.844;4.396;2023-12-04T06:11:34;5.70;;;3.63;;
23159;SDS011;11748;50.844;4.396;2023-12-04T06:13:59;5.07;;;3.47;;
23159;SDS011;11748;50.844;4.396;2023-12-04T06:16:25;6.35;;;4.00;;
23159;SDS011;11748;50.844;4.396;2023-12-04T06:18:51;4.97;;;4.03;;
23159;SDS011;11748;50.844;4.396;2023-12-04T06:21:17;7.00;;;4.05;;
23159;SDS011;11748;50.844;4.396;2023-12-04T06:23:43;5.55;;;4.20;;
23159;SDS011;11748;50.844;4.396;2023-12-04T06:26:21;6.72;;;4.32;;
23159;SDS011;11748;50.844;4.396;2023-12-04T06:31:18;5.30;;;4.05;;
23159;SDS011;11748;50.844;4.396;2023-12-04T06:33:44;6.75;;;3.95;;
23159;SDS011;11748;50.844;4.396;2023-12-04T06:36:10;7.18;;;4.07;;
23159;SDS011;11748;50.844;4.396;2023-12-04T06:41:42;6.90;;;4.82;;
23159;SDS011;11748;50.844;4.396;2023-12-04T06:44:15;7.93;;;3.80;;
23159;SDS011;11748;50.844;4.396;2023-12-04T06:46:41;5.95;;;4.30;;
23159;SDS011;11748;50.844;4.396;2023-12-04T06:49:16;6.53;;;4.40;;
23159;SDS011;11748;50.844;4.396;2023-12-04T06:51:49;5.63;;;3.90;;
23159;SDS011;11748;50.844;4.396;2023-12-04T06:54:21;6.28;;;4.40;;
23159;SDS011;11748;50.844;4.396;2023-12-04T06:56:46;7.22;;;4.65;;
23159;SDS011;11748;50.844;4.396;2023-12-04T06:59:18;6.75;;;3.92;;
23159;SDS011;11748;50.844;4.396;2023-12-04T07:01:50;5.50;;;4.10;;
23159;SDS011;11748;50.844;4.396;2023-12-04T07:04:18;5.97;;;4.38;;
23159;SDS011;11748;50.844;4.396;2023-12-04T07:06:56;6.25;;;4.50;;
23159;SDS011;11748;50.844;4.396;2023-12-04T07:09:35;7.35;;;4.28;;
23159;SDS011;11748;50.844;4.396;2023-12-04T07:12:19;8.40;;;5.03;;
23159;SDS011;11748;50.844;4.396;2023-12-04T07:14:56;9.45;;;4.07;;
23159;SDS011;11748;50.844;4.396;2023-12-04T07:20:48;6.80;;;4.40;;
23159;SDS011;11748;50.844;4.396;2023-12-04T07:25:56;6.38;;;4.57;;
23159;SDS011;11748;50.844;4.396;2023-12-04T07:28:24;6.32;;;4.65;;
23159;SDS011;11748;50.844;4.396;2023-12-04T07:30:56;8.02;;;4.55;;
23159;SDS011;11748;50.844;4.396;2023-12-04T07:33:22;5.72;;;4.65;;
23159;SDS011;11748;50.844;4.396;2023-12-04T07:35:49;8.43;;;4.88;;
23159;SDS011;11748;50.844;4.396;2023-12-04T07:38:22;6.68;;;4.45;;
23159;SDS011;11748;50.844;4.396;2023-12-04T07:40:49;7.72;;;4.63;;
23159;SDS011;11748;50.844;4.396;2023-12-04T07:43:15;6.72;;;4.55;;
23159;SDS011;11748;50.844;4.396;2023-12-04T07:45:42;7.47;;;4.70;;
23159;SDS011;11748;50.844;4.396;2023-12-04T07:48:13;6.75;;;4.43;;
23159;SDS011;11748;50.844;4.396;2023-12-04T07:50:41;9.05;;;4.60;;
23159;SDS011;11748;50.844;4.396;2023-12-04T07:53:07;7.68;;;4.85;;
23159;SDS011;11748;50.844;4.396;2023-12-04T07:55:35;6.28;;;4.50;;
23159;SDS011;11748;50.844;4.396;2023-12-04T07:58:00;6.63;;;4.82;;
23159;SDS011;11748;50.844;4.396;2023-12-04T08:00:26;8.75;;;5.18;;
23159;SDS011;11748;50.844;4.396;2023-12-04T08:02:52;7.65;;;4.70;;
23159;SDS011;11748;50.844;4.396;2023-12-04T08:05:18;7.00;;;4.60;;
23159;SDS011;11748;50.844;4.396;2023-12-04T08:07:44;7.20;;;5.28;;
23159;SDS011;11748;50.844;4.396;2023-12-04T08:10:10;7.38;;;5.05;;
23159;SDS011;11748;50.844;4.396;2023-12-04T08:12:36;9.43;;;5.55;;
23159;SDS011;11748;50.844;4.396;2023-12-04T08:15:02;7.93;;;5.13;;
23159;SDS011;11748;50.844;4.396;2023-12-04T08:17:29;6.93;;;5.20;;
23159;SDS011;11748;50.844;4.396;2023-12-04T08:19:55;7.70;;;6.03;;
23159;SDS011;11748;50.844;4.396;2023-12-04T08:22:21;7.55;;;5.00;;
23159;SDS011;11748;50.844;4.396;2023-12-04T08:24:47;6.90;;;5.25;;
23159;SDS011;11748;50.844;4.396;2023-12-04T08:27:12;8.65;;;5.07;;
23159;SDS011;11748;50.844;4.396;2023-12-04T08:29:41;7.80;;;5.22;;
23159;SDS011;11748;50.844;4.396;2023-12-04T08:32:07;7.53;;;5.38;;
23159;SDS011;11748;50.844;4.396;2023-12-04T08:34:33;8.05;;;5.10;;
23159;SDS011;11748;50.844;4.396;2023-12-04T08:36:58;8.75;;;5.18;;
23159;SDS011;11748;50.844;4.396;2023-12-04T08:39:24;9.48;;;5.03;;
23159;SDS011;11748;50.844;4.396;2023-12-04T08:41:50;7.55;;;5.13;;
23159;SDS011;11748;50.844;4.396;2023-12-04T08:44:15;6.90;;;4.82;;
23159;SDS011;11748;50.844;4.396;2023-12-04T08:46:44;6.32;;;5.03;;
23159;SDS011;11748;50.844;4.396;2023-12-04T08:49:10;10.02;;;6.00;;
23159;SDS011;11748;50.844;4.396;2023-12-04T08:51:36;7.07;;;5.28;;
23159;SDS011;11748;50.844;4.396;2023-12-04T08:54:03;6.78;;;5.30;;
23159;SDS011;11748;50.844;4.396;2023-12-04T08:56:32;8.90;;;4.95;;
23159;SDS011;11748;50.844;4.396;2023-12-04T08:59:01;8.20;;;5.28;;
23159;SDS011;11748;50.844;4.396;2023-12-04T09:01:32;7.28;;;5.38;;
23159;SDS011;11748;50.844;4.396;2023-12-04T09:03:58;7.40;;;5.20;;
23159;SDS011;11748;50.844;4.396;2023-12-04T09:06:24;7.00;;;5.18;;
23159;SDS011;11748;50.844;4.396;2023-12-04T09:08:50;8.40;;;5.15;;
23159;SDS011;11748;50.844;4.396;2023-12-04T09:16:16;6.47;;;5.13;;
23159;SDS011;11748;50.844;4.396;2023-12-04T09:21:14;7.32;;;5.50;;
23159;SDS011;11748;50.844;4.396;2023-12-04T09:23:41;11.52;;;7.10;;
23159;SDS011;11748;50.844;4.396;2023-12-04T09:26:08;7.22;;;4.70;;
23159;SDS011;11748;50.844;4.396;2023-12-04T09:28:36;6.40;;;5.05;;
23159;SDS011;11748;50.844;4.396;2023-12-04T09:31:03;8.00;;;4.75;;
23159;SDS011;11748;50.844;4.396;2023-12-04T09:33:29;6.90;;;5.28;;
23159;SDS011;11748;50.844;4.396;2023-12-04T09:38:31;7.45;;;5.70;;
23159;SDS011;11748;50.844;4.396;2023-12-04T09:41:00;9.80;;;5.53;;
23159;SDS011;11748;50.844;4.396;2023-12-04T09:43:31;9.40;;;5.20;;
23159;SDS011;11748;50.844;4.396;2023-12-04T09:45:58;7.22;;;5.30;;
23159;SDS011;11748;50.844;4.396;2023-12-04T09:48:25;10.55;;;5.18;;
23159;SDS011;11748;50.844;4.396;2023-12-04T09:50:52;10.15;;;5.25;;
23159;SDS011;11748;50.844;4.396;2023-12-04T09:53:19;8.10;;;5.20;;
23159;SDS011;11748;50.844;4.396;2023-12-04T09:55:49;8.43;;;5.60;;
23159;SDS011;11748;50.844;4.396;2023-12-04T09:58:15;9.52;;;6.13;;
23159;SDS011;11748;50.844;4.396;2023-12-04T10:00:44;9.05;;;6.47;;
23159;SDS011;11748;50.844;4.396;2023-12-04T10:03:10;9.23;;;5.75;;
23159;SDS011;11748;50.844;4.396;2023-12-04T10:05:37;10.23;;;5.47;;
23159;SDS011;11748;50.844;4.396;2023-12-04T10:08:03;9.55;;;6.43;;
23159;SDS011;11748;50.844;4.396;2023-12-04T10:10:29;8.68;;;5.72;;
23159;SDS011;11748;50.844;4.396;2023-12-04T10:12:55;10.15;;;6.10;;
23159;SDS011;11748;50.844;4.396;2023-12-04T10:15:21;9.30;;;5.85;;
23159;SDS011;11748;50.844;4.396;2023-12-04T10:17:46;11.25;;;6.75;;
23159;SDS011;11748;50.844;4.396;2023-12-04T10:20:15;10.20;;;6.53;;
23159;SDS011;11748;50.844;4.396;2023-12-04T10:25:19;11.38;;;6.78;;
23159;SDS011;11748;50.844;4.396;2023-12-04T10:27:45;10.73;;;7.00;;
23159;SDS011;11748;50.844;4.396;2023-12-04T10:30:29;9.15;;;6.55;;
23159;SDS011;11748;50.844;4.396;2023-12-04T10:33:03;10.27;;;6.43;;
23159;SDS011;11748;50.844;4.396;2023-12-04T10:35:31;8.00;;;6.30;;
23159;SDS011;11748;50.844;4.396;2023-12-04T10:37:58;10.07;;;6.35;;
23159;SDS011;11748;50.844;4.396;2023-12-04T10:40:31;8.32;;;6.00;;
23159;SDS011;11748;50.844;4.396;2023-12-04T10:45:39;12.75;;;6.85;;
23159;SDS011;11748;50.844;4.396;2023-12-04T10:48:07;8.25;;;6.50;;
23159;SDS011;11748;50.844;4.396;2023-12-04T10:50:35;10.13;;;6.40;;
23159;SDS011;11748;50.844;4.396;2023-12-04T10:53:06;11.57;;;6.68;;
23159;SDS011;11748;50.844;4.396;2023-12-04T10:55:32;10.25;;;6.07;;
23159;SDS011;11748;50.844;4.396;2023-12-04T10:58:10;8.82;;;6.35;;
23159;SDS011;11748;50.844;4.396;2023-12-04T11:00:43;11.02;;;6.38;;
23159;SDS011;11748;50.844;4.396;2023-12-04T11:03:18;9.52;;;6.05;;
23159;SDS011;11748;50.844;4.396;2023-12-04T11:06:01;8.13;;;6.18;;
23159;SDS011;11748;50.844;4.396;2023-12-04T11:08:32;7.68;;;5.68;;
23159;SDS011;11748;50.844;4.396;2023-12-04T11:11:08;12.48;;;6.22;;
23159;SDS011;11748;50.844;4.396;2023-12-04T11:13:39;8.93;;;6.03;;
23159;SDS011;11748;50.844;4.396;2023-12-04T11:16:51;8.75;;;6.00;;
23159;SDS011;11748;50.844;4.396;2023-12-04T11:23:59;8.63;;;6.57;;
23159;SDS011;11748;50.844;4.396;2023-12-04T11:26:27;7.00;;;5.88;;
23159;SDS011;11748;50.844;4.396;2023-12-04T11:28:55;7.28;;;5.65;;
23159;SDS011;11748;50.844;4.396;2023-12-04T11:31:25;8.00;;;5.78;;
23159;SDS011;11748;50.844;4.396;2023-12-04T11:34:04;9.88;;;5.80;;
23159;SDS011;11748;50.844;4.396;2023-12-04T11:36:31;10.25;;;5.70;;
23159;SDS011;11748;50.844;4.396;2023-12-04T11:39:00;7.43;;;5.50;;
23159;SDS011;11748;50.844;4.396;2023-12-04T11:41:26;6.40;;;4.95;;
23159;SDS011;11748;50.844;4.396;2023-12-04T11:44:00;7.38;;;5.03;;
23159;SDS011;11748;50.844;4.396;2023-12-04T11:46:31;7.75;;;5.45;;
23159;SDS011;11748;50.844;4.396;2023-12-04T11:49:43;7.20;;;5.55;;
23159;SDS011;11748;50.844;4.396;2023-12-04T11:52:06;8.00;;;5.47;;
23159;SDS011;11748;50.844;4.396;2023-12-04T11:57:35;8.35;;;5.05;;
23159;SDS011;11748;50.844;4.396;2023-12-04T12:00:12;10.15;;;5.15;;
23159;SDS011;11748;50.844;4.396;2023-12-04T12:05:24;7.22;;;5.13;;
23159;SDS011;11748;50.844;4.396;2023-12-04T12:07:51;6.78;;;4.78;;
23159;SDS011;11748;50.844;4.396;2023-12-04T12:10:17;6.43;;;4.63;;
23159;SDS011;11748;50.844;4.396;2023-12-04T12:12:43;7.93;;;5.25;;
23159;SDS011;11748;50.844;4.396;2023-12-04T12:15:09;5.93;;;4.90;;
23159;SDS011;11748;50.844;4.396;2023-12-04T12:17:40;7.97;;;4.70;;
23159;SDS011;11748;50.844;4.396;2023-12-04T12:20:07;7.32;;;5.00;;
23159;SDS011;11748;50.844;4.396;2023-12-04T12:22:35;6.38;;;4.88;;
23159;SDS011;11748;50.844;4.396;2023-12-04T12:25:06;7.25;;;4.95;;
23159;SDS011;11748;50.844;4.396;2023-12-04T12:27:32;9.10;;;4.43;;
23159;SDS011;11748;50.844;4.396;2023-12-04T12:29:59;7.85;;;4.75;;
23159;SDS011;11748;50.844;4.396;2023-12-04T12:32:28;7.85;;;5.68;;
23159;SDS011;11748;50.844;4.396;2023-12-04T12:34:54;5.70;;;4.50;;
23159;SDS011;11748;50.844;4.396;2023-12-04T12:37:21;8.38;;;4.68;;
23159;SDS011;11748;50.844;4.396;2023-12-04T12:39:47;6.95;;;4.53;;
23159;SDS011;11748;50.844;4.396;2023-12-04T12:42:26;5.55;;;4.18;;
23159;SDS011;11748;50.844;4.396;2023-12-04T12:44:53;4.57;;;4.00;;
23159;SDS011;11748;50.844;4.396;2023-12-04T12:47:20;5.55;;;4.30;;
23159;SDS011;11748;50.844;4.396;2023-12-04T12:49:46;7.80;;;4.82;;
23159;SDS011;11748;50.844;4.396;2023-12-04T12:52:12;5.97;;;4.07;;
23159;SDS011;11748;50.844;4.396;2023-12-04T12:54:43;6.53;;;5.07;;
23159;SDS011;11748;50.844;4.396;2023-12-04T12:57:11;5.15;;;4.45;;
23159;SDS011;11748;50.844;4.396;2023-12-04T12:59:38;5.43;;;3.75;;
23159;SDS011;11748;50.844;4.396;2023-12-04T13:02:06;6.38;;;4.45;;
23159;SDS011;11748;50.844;4.396;2023-12-04T13:07:02;9.85;;;4.78;;
23159;SDS011;11748;50.844;4.396;2023-12-04T13:09:30;7.10;;;4.95;;
23159;SDS011;11748;50.844;4.396;2023-12-04T13:11:59;6.95;;;4.72;;
23159;SDS011;11748;50.844;4.396;2023-12-04T13:19:26;5.63;;;4.45;;
23159;SDS011;11748;50.844;4.396;2023-12-04T13:21:52;7.18;;;4.30;;
23159;SDS011;11748;50.844;4.396;2023-12-04T13:24:18;6.95;;;4.28;;
23159;SDS011;11748;50.844;4.396;2023-12-04T13:26:44;6.07;;;4.50;;
23159;SDS011;11748;50.844;4.396;2023-12-04T13:29:11;4.68;;;4.18;;
23159;SDS011;11748;50.844;4.396;2023-12-04T13:31:42;7.15;;;4.22;;
23159;SDS011;11748;50.844;4.396;2023-12-04T13:34:08;6.53;;;4.53;;
23159;SDS011;11748;50.844;4.396;2023-12-04T13:36:34;5.10;;;4.10;;
23159;SDS011;11748;50.844;4.396;2023-12-04T13:39:01;5.05;;;3.90;;
23159;SDS011;11748;50.844;4.396;2023-12-04T13:41:29;6.85;;;4.32;;
23159;SDS011;11748;50.844;4.396;2023-12-04T13:44:14;4.13;;;3.67;;
23159;SDS011;11748;50.844;4.396;2023-12-04T13:46:40;4.85;;;3.83;;
23159;SDS011;11748;50.844;4.396;2023-12-04T13:49:06;6.75;;;4.60;;
23159;SDS011;11748;50.844;4.396;2023-12-04T13:51:32;6.22;;;4.38;;
23159;SDS011;11748;50.844;4.396;2023-12-04T13:53:59;6.72;;;4.35;;
23159;SDS011;11748;50.844;4.396;2023-12-04T13:56:34;4.88;;;4.00;;
23159;SDS011;11748;50.844;4.396;2023-12-04T13:59:07;5.07;;;4.22;;
23159;SDS011;11748;50.844;4.396;2023-12-04T14:01:33;6.05;;;4.70;;
23159;SDS011;11748;50.844;4.396;2023-12-04T14:03:59;4.75;;;3.88;;
23159;SDS011;11748;50.844;4.396;2023-12-04T14:06:28;4.82;;;3.90;;
23159;SDS011;11748;50.844;4.396;2023-12-04T14:08:54;4.38;;;3.90;;
23159;SDS011;11748;50.844;4.396;2023-12-04T14:11:22;5.50;;;4.38;;
23159;SDS011;11748;50.844;4.396;2023-12-04T14:13:48;8.68;;;5.32;;
23159;SDS011;11748;50.844;4.396;2023-12-04T14:16:14;5.10;;;4.20;;
23159;SDS011;11748;50.844;4.396;2023-12-04T14:18:41;11.38;;;4.55;;
23159;SDS011;11748;50.844;4.396;2023-12-04T14:21:07;6.47;;;3.97;;
23159;SDS011;11748;50.844;4.396;2023-12-04T14:23:34;6.80;;;4.45;;
23159;SDS011;11748;50.844;4.396;2023-12-04T14:28:30;5.97;;;4.13;;
23159;SDS011;11748;50.844;4.396;2023-12-04T14:31:01;6.85;;;4.15;;
23159;SDS011;11748;50.844;4.396;2023-12-04T14:33:30;6.32;;;4.20;;
23159;SDS011;11748;50.844;4.396;2023-12-04T14:35:57;6.97;;;4.57;;
23159;SDS011;11748;50.844;4.396;2023-12-04T14:38:26;7.93;;;4.75;;
23159;SDS011;11748;50.844;4.396;2023-12-04T14:40:58;8.20;;;4.50;;
23159;SDS011;11748;50.844;4.396;2023-12-04T14:43:24;5.43;;;4.20;;
23159;SDS011;11748;50.844;4.396;2023-12-04T14:45:52;6.10;;;4.38;;
23159;SDS011;11748;50.844;4.396;2023-12-04T14:48:23;7.35;;;4.68;;
23159;SDS011;11748;50.844;4.396;2023-12-04T14:50:51;6.90;;;4.60;;
23159;SDS011;11748;50.844;4.396;2023-12-04T14:53:20;6.32;;;4.90;;
23159;SDS011;11748;50.844;4.396;2023-12-04T14:58:53;6.05;;;4.53;;
23159;SDS011;11748;50.844;4.396;2023-12-04T15:06:58;11.15;;;5.95;;
23159;SDS011;11748;50.844;4.396;2023-12-04T15:12:59;6.55;;;4.90;;
23159;SDS011;11748;50.844;4.396;2023-12-04T15:15:51;8.68;;;5.35;;
23159;SDS011;11748;50.844;4.396;2023-12-04T15:18:38;6.82;;;5.40;;
23159;SDS011;11748;50.844;4.396;2023-12-04T15:21:34;7.72;;;5.18;;
23159;SDS011;11748;50.844;4.396;2023-12-04T15:24:02;7.85;;;4.85;;
23159;SDS011;11748;50.844;4.396;2023-12-04T15:26:31;11.73;;;5.63;;
23159;SDS011;11748;50.844;4.396;2023-12-04T15:29:00;10.57;;;5.88;;
23159;SDS011;11748;50.844;4.396;2023-12-04T15:34:01;9.20;;;6.10;;
23159;SDS011;11748;50.844;4.396;2023-12-04T15:36:34;6.47;;;5.40;;
23159;SDS011;11748;50.844;4.396;2023-12-04T15:41:47;7.90;;;6.05;;
23159;SDS011;11748;50.844;4.396;2023-12-04T15:44:19;6.25;;;5.28;;
23159;SDS011;11748;50.844;4.396;2023-12-04T15:46:46;7.47;;;5.38;;
23159;SDS011;11748;50.844;4.396;2023-12-04T15:49:12;7.13;;;5.50;;
23159;SDS011;11748;50.844;4.396;2023-12-04T15:51:52;8.32;;;5.82;;
23159;SDS011;11748;50.844;4.396;2023-12-04T15:54:21;8.23;;;4.93;;
23159;SDS011;11748;50.844;4.396;2023-12-04T15:56:50;8.20;;;5.60;;
23159;SDS011;11748;50.844;4.396;2023-12-04T15:59:15;9.20;;;5.85;;
23159;SDS011;11748;50.844;4.396;2023-12-04T16:01:41;10.70;;;6.03;;
23159;SDS011;11748;50.844;4.396;2023-12-04T16:04:14;8.30;;;5.40;;
23159;SDS011;11748;50.844;4.396;2023-12-04T16:06:40;6.47;;;5.43;;
23159;SDS011;11748;50.844;4.396;2023-12-04T16:09:09;7.97;;;6.20;;
23159;SDS011;11748;50.844;4.396;2023-12-04T16:11:44;7.97;;;5.07;;